GHB - Wetterstation

--- Lilienthal-Gleiter-Unterfranken e.V. --- (Impressum)
-> Windverlauf / Grafik
-> Barometerverlauf / Grafik
-> Wetter Links
-> WS GHB auf Windy



Bitte Uhrzeit beachten ob Daten aktuell sind!

Anzeige der letzten 100 Messwerte (~8 Stunden)
Datum Zeit Wind Richtung Richtung Böen Temperatur Feuchte Luftdruck
18.05.2022 15:40:10 3.58 km/h 169.2 ° S 10.44 km/h 34 °C 46 % 1021.92 hPa
18.05.2022 15:35:24 7.49 km/h 198.7 ° S-SW 16.56 km/h 34.4 °C 46 % 1021.92 hPa
18.05.2022 15:28:04 6.47 km/h 216.1 ° SW 11.88 km/h 34.2 °C 47 % 1022.02 hPa
18.05.2022 15:23:18 2.47 km/h 174.5 ° S 8.28 km/h 34.1 °C 46.5 % 1022.02 hPa
18.05.2022 15:18:31 3.1 km/h 150.7 ° S-SO 6.48 km/h 34.2 °C 46.5 % 1022.02 hPa
18.05.2022 15:13:44 3.74 km/h 169.8 ° S 12.96 km/h 34 °C 47 % 1022.12 hPa
18.05.2022 15:08:58 4.48 km/h 130.5 ° SO 11.88 km/h 33.7 °C 47 % 1022.12 hPa
18.05.2022 15:04:12 2.11 km/h 257.5 ° W-SW 4.32 km/h 33.3 °C 47 % 1022.22 hPa
18.05.2022 14:59:25 2.68 km/h 207.1 ° S-SW 5.04 km/h 32.8 °C 47 % 1022.22 hPa
18.05.2022 14:54:39 2.1 km/h 260.5 ° W 5.4 km/h 32.5 °C 47.5 % 1022.22 hPa
18.05.2022 14:46:17 3.15 km/h 208.3 ° S-SW 5.76 km/h 31.4 °C 47.5 % 1022.22 hPa
18.05.2022 14:41:31 2.47 km/h 155.5 ° S-SO 3.96 km/h 30.9 °C 47.5 % 1022.22 hPa
18.05.2022 14:36:45 2.52 km/h 217.6 ° SW 5.4 km/h 30.4 °C 46.5 % 1022.22 hPa
18.05.2022 14:32:00 9.75 km/h 155.1 ° S-SO 15.84 km/h 30.3 °C 46 % 1022.22 hPa
18.05.2022 14:27:14 3.54 km/h 129.3 ° SO 7.2 km/h 30.3 °C 46 % 1022.22 hPa
18.05.2022 14:22:29 4.28 km/h 195.7 ° S-SW 12.6 km/h 30.1 °C 45 % 1022.32 hPa
18.05.2022 14:17:43 5.57 km/h 146.7 ° S-SO 11.88 km/h 29.8 °C 45.5 % 1022.32 hPa
18.05.2022 14:12:58 5.4 km/h 148.4 ° S-SO 11.16 km/h 29.5 °C 45 % 1022.32 hPa
18.05.2022 14:08:12 2.52 km/h 249.5 ° W-SW 4.68 km/h 29.3 °C 46 % 1022.32 hPa
18.05.2022 14:03:27 3.93 km/h 137.5 ° SO 6.84 km/h 29.3 °C 45.5 % 1022.42 hPa
18.05.2022 13:58:41 1.77 km/h 212.5 ° S-SW 5.4 km/h 29.1 °C 45.5 % 1022.42 hPa
18.05.2022 13:53:56 9.87 km/h 152 ° S-SO 17.28 km/h 29.1 °C 46 % 1022.42 hPa
18.05.2022 13:49:10 9.06 km/h 171.7 ° S 16.2 km/h 29.4 °C 45 % 1022.42 hPa
18.05.2022 13:44:25 10.53 km/h 151.3 ° S-SO 15.48 km/h 29.7 °C 45 % 1022.52 hPa
18.05.2022 13:39:40 5.25 km/h 157.8 ° S-SO 10.8 km/h 29.8 °C 45 % 1022.52 hPa
18.05.2022 13:34:54 6.82 km/h 150.1 ° S-SO 9 km/h 29.6 °C 45.5 % 1022.52 hPa
18.05.2022 13:30:09 5.5 km/h 148.2 ° S-SO 8.28 km/h 29.4 °C 45.5 % 1022.52 hPa
18.05.2022 13:25:24 1.36 km/h 123.2 ° O-SO 5.4 km/h 29.3 °C 45.5 % 1022.52 hPa
18.05.2022 13:20:38 5.19 km/h 138.9 ° SO 7.92 km/h 29.2 °C 46 % 1022.62 hPa
18.05.2022 13:15:53 5.77 km/h 150.5 ° S-SO 8.64 km/h 29.1 °C 45 % 1022.72 hPa
18.05.2022 13:11:07 3.33 km/h 132.2 ° SO 6.12 km/h 29.2 °C 46 % 1022.72 hPa
18.05.2022 13:06:22 2.6 km/h 176.4 ° S 5.4 km/h 29.3 °C 45.5 % 1022.72 hPa
18.05.2022 13:01:37 3.89 km/h 143.3 ° SO 7.56 km/h 29.5 °C 45.5 % 1022.82 hPa
18.05.2022 12:56:51 4.63 km/h 169.6 ° S 10.44 km/h 29.6 °C 45.5 % 1022.82 hPa
18.05.2022 12:52:06 4.85 km/h 150.3 ° S-SO 10.08 km/h 29.6 °C 45.5 % 1022.82 hPa
18.05.2022 12:47:20 4.34 km/h 135.3 ° SO 7.2 km/h 29.6 °C 45.5 % 1022.92 hPa
18.05.2022 12:42:35 5.56 km/h 148.8 ° S-SO 8.28 km/h 29.7 °C 45 % 1023.02 hPa
18.05.2022 12:37:49 4.9 km/h 174.7 ° S 7.56 km/h 29.9 °C 45 % 1023.02 hPa
18.05.2022 12:33:04 6.89 km/h 177.4 ° S 9.36 km/h 30.4 °C 44.5 % 1023.02 hPa
18.05.2022 12:28:18 3.91 km/h 140.2 ° SO 11.52 km/h 30.6 °C 45 % 1023.02 hPa
18.05.2022 12:23:32 6.61 km/h 142.7 ° SO 11.16 km/h 30.7 °C 45 % 1023.12 hPa
18.05.2022 12:18:46 9.52 km/h 149.7 ° S-SO 13.68 km/h 30.9 °C 45.5 % 1023.12 hPa
18.05.2022 12:14:01 7.48 km/h 143.3 ° SO 12.6 km/h 31.1 °C 45.5 % 1023.12 hPa
18.05.2022 12:09:15 7.05 km/h 144.6 ° SO 9 km/h 30.9 °C 46 % 1023.12 hPa
18.05.2022 12:04:29 6.9 km/h 148 ° S-SO 9 km/h 30.7 °C 46 % 1023.12 hPa
18.05.2022 11:59:43 7.76 km/h 165.8 ° S-SO 9.72 km/h 30.6 °C 46 % 1023.22 hPa
18.05.2022 11:54:57 9.06 km/h 157.2 ° S-SO 11.52 km/h 31.1 °C 45.5 % 1023.22 hPa
18.05.2022 11:50:11 5.61 km/h 145 ° SO 9.36 km/h 31.2 °C 45.5 % 1023.22 hPa
18.05.2022 11:45:25 7.81 km/h 157.8 ° S-SO 10.44 km/h 31 °C 45 % 1023.22 hPa
18.05.2022 11:40:39 4.19 km/h 139.8 ° SO 7.56 km/h 30.9 °C 45 % 1023.12 hPa
18.05.2022 11:35:53 8.53 km/h 156 ° S-SO 12.6 km/h 30.8 °C 44 % 1023.22 hPa
18.05.2022 11:31:08 5.6 km/h 157.8 ° S-SO 8.64 km/h 30.7 °C 44.5 % 1023.22 hPa
18.05.2022 11:26:22 4.96 km/h 148.2 ° S-SO 10.08 km/h 30.4 °C 44.5 % 1023.22 hPa
18.05.2022 11:21:36 4.34 km/h 141 ° SO 7.92 km/h 29.7 °C 44.5 % 1023.22 hPa
18.05.2022 11:16:50 3.14 km/h 157.4 ° S-SO 3.6 km/h 29.3 °C 44.5 % 1023.32 hPa
18.05.2022 11:12:04 7.78 km/h 151.3 ° S-SO 13.68 km/h 29 °C 44 % 1023.32 hPa
18.05.2022 11:07:19 4.21 km/h 144 ° SO 9.36 km/h 28.8 °C 44.5 % 1023.32 hPa
18.05.2022 11:02:33 5.01 km/h 173.6 ° S 10.44 km/h 28.5 °C 45 % 1023.32 hPa
18.05.2022 10:57:48 6.17 km/h 175.5 ° S 11.52 km/h 28.3 °C 44.5 % 1023.32 hPa
18.05.2022 10:53:02 4.96 km/h 140.2 ° SO 10.08 km/h 28.1 °C 44.5 % 1023.32 hPa
18.05.2022 10:48:17 3.9 km/h 150.3 ° S-SO 7.56 km/h 27.8 °C 44.5 % 1023.42 hPa
18.05.2022 10:43:31 6.73 km/h 159.8 ° S-SO 8.28 km/h 27.6 °C 44 % 1023.52 hPa
18.05.2022 10:38:46 5.57 km/h 149.4 ° S-SO 7.2 km/h 27.3 °C 44.5 % 1023.52 hPa
18.05.2022 10:34:01 5.41 km/h 154.1 ° S-SO 7.92 km/h 26.9 °C 44.5 % 1023.42 hPa
18.05.2022 10:29:15 6.69 km/h 156 ° S-SO 8.64 km/h 26.5 °C 44.5 % 1023.42 hPa
18.05.2022 10:24:30 7.33 km/h 160.4 ° S-SO 10.08 km/h 26.1 °C 45 % 1023.42 hPa
18.05.2022 10:19:45 6.24 km/h 149.9 ° S-SO 10.08 km/h 25.8 °C 45 % 1023.42 hPa
18.05.2022 10:15:00 7.61 km/h 156.8 ° S-SO 11.16 km/h 25.4 °C 45.5 % 1023.32 hPa
18.05.2022 10:10:15 7.25 km/h 156.8 ° S-SO 10.8 km/h 25 °C 45.5 % 1023.32 hPa
18.05.2022 10:05:29 7.2 km/h 165.8 ° S-SO 9 km/h 24.6 °C 45.5 % 1023.32 hPa
18.05.2022 10:00:45 7.56 km/h 163.5 ° S-SO 9 km/h 24.1 °C 45.5 % 1023.32 hPa
18.05.2022 09:56:00 6.54 km/h 161.4 ° S-SO 9.36 km/h 23.7 °C 46 % 1023.32 hPa
18.05.2022 09:51:15 6.7 km/h 157 ° S-SO 9.36 km/h 23.5 °C 46.5 % 1023.32 hPa
18.05.2022 09:46:30 6.47 km/h 152.2 ° S-SO 9.36 km/h 23 °C 47 % 1023.32 hPa
18.05.2022 09:41:45 7.33 km/h 156.8 ° S-SO 9 km/h 22.5 °C 47 % 1023.32 hPa
18.05.2022 09:37:01 6.34 km/h 158.9 ° S-SO 9.36 km/h 22.2 °C 47.5 % 1023.22 hPa
18.05.2022 09:32:16 7.85 km/h 153.7 ° S-SO 9.36 km/h 22.1 °C 47.5 % 1023.22 hPa
18.05.2022 09:27:31 4.24 km/h 150.1 ° S-SO 6.84 km/h 22.1 °C 48 % 1023.32 hPa
18.05.2022 09:22:46 3.9 km/h 137.7 ° SO 6.12 km/h 21.8 °C 47 % 1023.32 hPa
18.05.2022 09:18:02 6.58 km/h 148.8 ° S-SO 9.36 km/h 21.7 °C 47 % 1023.22 hPa
18.05.2022 09:13:17 5.28 km/h 143.3 ° SO 7.92 km/h 21.7 °C 46.5 % 1023.22 hPa
18.05.2022 09:08:33 4.09 km/h 145.2 ° SO 7.56 km/h 21.6 °C 46 % 1023.22 hPa
18.05.2022 09:03:48 2.05 km/h 147.6 ° S-SO 4.68 km/h 21.6 °C 46 % 1023.32 hPa
18.05.2022 08:54:20 4.2 km/h 133.9 ° SO 6.48 km/h 21.4 °C 45 % 1023.32 hPa
18.05.2022 08:49:35 6.96 km/h 146.1 ° SO 7.92 km/h 21.4 °C 45 % 1023.32 hPa
18.05.2022 08:44:51 5.04 km/h 141.7 ° SO 7.56 km/h 21.5 °C 44.5 % 1023.32 hPa
18.05.2022 08:40:06 3.62 km/h 133.3 ° SO 5.4 km/h 21.5 °C 44.5 % 1023.32 hPa
18.05.2022 08:35:22 0.3 km/h 130.5 ° SO 2.88 km/h 21.4 °C 44.5 % 1023.22 hPa
18.05.2022 08:30:37 2.21 km/h 127.4 ° SO 4.68 km/h 21 °C 44 % 1023.22 hPa
18.05.2022 08:25:53 0.73 km/h 124.8 ° SO 2.16 km/h 20.6 °C 44.5 % 1023.22 hPa
18.05.2022 08:21:09 0.3 km/h 105.5 ° O-SO 1.08 km/h 20.1 °C 44 % 1023.22 hPa
18.05.2022 08:16:25 2.44 km/h 119.4 ° O-SO 6.12 km/h 19.6 °C 45 % 1023.32 hPa
18.05.2022 08:11:40 3.15 km/h 138.7 ° SO 3.96 km/h 19 °C 45.5 % 1023.22 hPa
18.05.2022 08:06:56 3.8 km/h 126.7 ° SO 5.76 km/h 18.5 °C 45.5 % 1023.12 hPa
18.05.2022 08:02:12 2.01 km/h 117.9 ° O-SO 5.76 km/h 17.9 °C 46.5 % 1023.02 hPa
18.05.2022 07:57:28 3.14 km/h 119.6 ° O-SO 6.84 km/h 17.2 °C 46.5 % 1023.02 hPa
18.05.2022 07:52:44 1.94 km/h 114.5 ° O-SO 5.4 km/h 16.2 °C 48 % 1023.02 hPa
18.05.2022 07:48:00 1.85 km/h 132.4 ° SO 5.04 km/h 14.4 °C 50.5 % 1023.02 hPa
18.05.2022 07:43:17 1.13 km/h 211.5 ° S-SW 2.52 km/h 12.9 °C 51.5 % 1023.02 hPa
18.05.2022 07:38:34 3.65 km/h 113.5 ° O-SO 5.4 km/h 12.5 °C 52 % 1023.02 hPa